createdAt,value
2023-05-18T00:01:30.791Z,10.96
2023-05-18T00:03:57.458Z,10.93
2023-05-18T00:06:25.413Z,10.89
2023-05-18T00:08:51.994Z,10.87
2023-05-18T00:11:18.572Z,10.85
2023-05-18T00:13:45.717Z,10.79
2023-05-18T00:16:15.973Z,10.76
2023-05-18T00:18:45.186Z,10.72
2023-05-18T00:21:12.287Z,10.62
2023-05-18T00:23:39.655Z,10.60
2023-05-18T00:26:08.675Z,10.55
2023-05-18T00:28:37.453Z,10.56
2023-05-18T00:31:04.088Z,10.55
2023-05-18T00:33:33.028Z,10.53
2023-05-18T00:36:02.017Z,10.54
2023-05-18T00:38:28.463Z,10.50
2023-05-18T00:40:55.057Z,10.49
2023-05-18T00:43:21.650Z,10.43
2023-05-18T00:45:48.205Z,10.42
2023-05-18T00:48:15.681Z,10.41
2023-05-18T00:50:42.154Z,10.40
2023-05-18T00:53:10.668Z,10.41
2023-05-18T00:55:37.394Z,10.41
2023-05-18T00:58:05.327Z,10.38
2023-05-18T01:00:33.753Z,10.36
2023-05-18T01:03:02.572Z,10.32
2023-05-18T01:05:29.381Z,10.30
2023-05-18T01:07:57.945Z,10.31
2023-05-18T01:10:26.896Z,10.31
2023-05-18T01:13:21.014Z,10.31
2023-05-18T01:15:52.790Z,10.28
2023-05-18T01:18:38.182Z,10.29
2023-05-18T01:21:22.021Z,10.25
2023-05-18T01:23:57.296Z,10.27
2023-05-18T01:26:30.989Z,10.25
2023-05-18T01:29:02.915Z,10.22
2023-05-18T01:31:30.335Z,10.20
2023-05-18T01:33:58.002Z,10.19
2023-05-18T01:36:24.504Z,10.18
2023-05-18T01:38:55.512Z,10.12
2023-05-18T01:41:25.744Z,10.08
2023-05-18T01:44:12.634Z,10.07
2023-05-18T01:47:14.068Z,10.02
2023-05-18T01:50:06.613Z,10.02
2023-05-18T01:52:37.619Z,9.95
2023-05-18T01:55:06.390Z,9.91
2023-05-18T01:57:35.017Z,9.93
2023-05-18T02:00:02.291Z,9.88
2023-05-18T02:02:29.302Z,9.87
2023-05-18T02:04:56.175Z,9.79
2023-05-18T02:07:23.136Z,9.76
2023-05-18T02:09:51.709Z,9.72
2023-05-18T02:12:18.288Z,9.70
2023-05-18T02:14:47.284Z,9.61
2023-05-18T02:17:13.977Z,9.63
2023-05-18T02:19:40.587Z,9.56
2023-05-18T02:22:08.151Z,9.52
2023-05-18T02:24:39.375Z,9.49
2023-05-18T02:27:05.899Z,9.44
2023-05-18T02:29:33.716Z,9.38
2023-05-18T02:32:00.171Z,9.32
2023-05-18T02:34:27.475Z,9.25
2023-05-18T02:36:57.802Z,9.24
2023-05-18T02:39:24.279Z,9.21
2023-05-18T02:41:50.912Z,9.09
2023-05-18T02:44:19.758Z,8.96
2023-05-18T02:46:46.378Z,8.91
2023-05-18T02:49:12.770Z,8.87
2023-05-18T02:51:39.262Z,8.86
2023-05-18T02:54:05.880Z,8.86
2023-05-18T02:56:33.480Z,8.90
2023-05-18T02:59:03.930Z,8.86
2023-05-18T03:01:30.466Z,8.81
2023-05-18T03:03:59.797Z,8.79
2023-05-18T03:06:27.240Z,8.82
2023-05-18T03:08:54.368Z,8.87
2023-05-18T03:11:23.940Z,8.77
2023-05-18T03:13:51.617Z,8.80
2023-05-18T03:16:18.756Z,8.75
2023-05-18T03:18:46.013Z,8.71
2023-05-18T03:21:15.504Z,8.74
2023-05-18T03:23:44.314Z,8.63
2023-05-18T03:26:12.232Z,8.59
2023-05-18T03:28:39.055Z,8.49
2023-05-18T03:31:05.655Z,8.51
2023-05-18T03:33:32.142Z,8.53
2023-05-18T03:36:03.457Z,8.55
2023-05-18T03:38:29.945Z,8.57
2023-05-18T03:40:56.609Z,8.56
2023-05-18T03:43:26.287Z,8.59
2023-05-18T03:45:53.498Z,8.58
2023-05-18T03:48:20.945Z,8.61
2023-05-18T03:50:50.052Z,8.65
2023-05-18T03:53:19.193Z,8.61
2023-05-18T03:55:46.139Z,8.61
2023-05-18T03:58:12.691Z,8.64
2023-05-18T04:00:39.170Z,8.62
2023-05-18T04:03:06.467Z,8.73
2023-05-18T04:05:33.752Z,8.73
2023-05-18T04:08:05.017Z,8.71
2023-05-18T04:10:31.517Z,8.69
2023-05-18T04:12:58.820Z,8.73
2023-05-18T04:15:25.687Z,8.82
2023-05-18T04:17:53.832Z,8.85
2023-05-18T04:20:23.637Z,8.90
2023-05-18T04:22:50.156Z,8.93
2023-05-18T04:25:22.463Z,8.97
2023-05-18T04:27:51.467Z,9.05
2023-05-18T04:30:18.677Z,9.07
2023-05-18T04:32:45.307Z,9.12
2023-05-18T04:35:12.232Z,9.11
2023-05-18T04:37:41.483Z,9.15
2023-05-18T04:40:14.424Z,9.23
2023-05-18T04:42:45.764Z,9.26
2023-05-18T04:45:18.818Z,9.29
2023-05-18T04:47:48.551Z,9.37
2023-05-18T04:50:18.236Z,9.40
2023-05-18T04:52:49.747Z,9.56
2023-05-18T04:55:23.315Z,9.60
2023-05-18T04:57:51.031Z,9.71
2023-05-18T05:00:18.148Z,9.85
2023-05-18T05:02:44.891Z,9.90
2023-05-18T05:05:12.045Z,9.98
2023-05-18T05:07:38.530Z,10.10
2023-05-18T05:10:07.588Z,10.18
2023-05-18T05:12:38.208Z,10.28
2023-05-18T05:15:05.102Z,10.38
2023-05-18T05:17:31.551Z,10.49
2023-05-18T05:19:58.172Z,10.61
2023-05-18T05:22:24.834Z,10.67
2023-05-18T05:24:53.809Z,10.80
2023-05-18T05:27:20.641Z,10.88
2023-05-18T05:29:47.311Z,10.88
2023-05-18T05:32:13.764Z,10.96
2023-05-18T05:34:46.668Z,11.01
2023-05-18T05:37:13.908Z,11.06
2023-05-18T05:39:40.488Z,11.17
2023-05-18T05:42:08.670Z,11.20
2023-05-18T05:44:35.615Z,11.28
2023-05-18T05:47:02.256Z,11.42
2023-05-18T05:49:29.666Z,11.33
2023-05-18T05:51:56.180Z,11.42
2023-05-18T05:54:22.856Z,11.49
2023-05-18T05:56:49.816Z,11.63
2023-05-18T05:59:16.322Z,11.70
2023-05-18T06:01:42.747Z,11.67
2023-05-18T06:04:12.446Z,11.80
2023-05-18T06:06:39.300Z,11.84
2023-05-18T06:09:06.011Z,11.97
2023-05-18T06:11:36.983Z,12.03
2023-05-18T06:14:03.382Z,12.21
2023-05-18T06:16:29.811Z,12.26
2023-05-18T06:18:56.481Z,12.35
2023-05-18T06:21:23.060Z,12.35
2023-05-18T06:23:49.497Z,12.31
2023-05-18T06:26:17.752Z,12.52
2023-05-18T06:28:44.159Z,12.64
2023-05-18T06:31:11.129Z,12.66
2023-05-18T06:33:38.557Z,12.72
2023-05-18T06:36:05.422Z,12.86
2023-05-18T06:38:31.984Z,12.93
2023-05-18T06:40:58.626Z,13.07
2023-05-18T06:43:28.575Z,13.01
2023-05-18T06:45:59.011Z,13.09
2023-05-18T06:48:29.592Z,13.20
2023-05-18T06:50:56.203Z,13.41
2023-05-18T06:53:23.345Z,13.53
2023-05-18T06:55:52.364Z,13.51
2023-05-18T06:58:18.738Z,13.53
2023-05-18T07:00:45.470Z,13.66
2023-05-18T07:03:12.027Z,13.85
2023-05-18T07:05:42.085Z,13.88
2023-05-18T07:08:09.555Z,13.90
2023-05-18T07:10:37.337Z,13.71
2023-05-18T07:13:03.753Z,13.79
2023-05-18T07:15:33.506Z,14.02
2023-05-18T07:18:00.931Z,14.20
2023-05-18T07:20:27.457Z,14.31
2023-05-18T07:22:57.111Z,14.49
2023-05-18T07:25:27.235Z,14.61
2023-05-18T07:28:00.042Z,14.76
2023-05-18T07:30:26.794Z,14.82
2023-05-18T07:32:53.757Z,15.03
2023-05-18T07:35:24.316Z,15.02
2023-05-18T07:37:52.069Z,15.11
2023-05-18T07:40:19.968Z,15.24
2023-05-18T07:42:47.049Z,15.20
2023-05-18T07:45:14.208Z,15.43
2023-05-18T07:47:40.869Z,15.41
2023-05-18T07:50:10.244Z,15.48
2023-05-18T07:52:36.822Z,15.43
2023-05-18T07:55:04.731Z,15.62
2023-05-18T07:57:31.214Z,15.51
2023-05-18T07:59:57.667Z,15.58
2023-05-18T08:02:24.921Z,15.56
2023-05-18T08:04:51.932Z,15.77
2023-05-18T08:07:21.524Z,15.95
2023-05-18T08:09:51.910Z,15.83
2023-05-18T08:12:21.547Z,16.09
2023-05-18T08:14:47.964Z,16.02
2023-05-18T08:17:16.619Z,15.87
2023-05-18T08:19:47.528Z,15.99
2023-05-18T08:22:17.769Z,16.11
2023-05-18T08:24:45.153Z,16.33
2023-05-18T08:27:12.028Z,16.36
2023-05-18T08:29:39.290Z,16.20
2023-05-18T08:32:07.161Z,16.61
2023-05-18T08:34:34.888Z,16.17
2023-05-18T08:37:03.014Z,16.48
2023-05-18T08:39:31.983Z,16.60
2023-05-18T08:42:09.598Z,16.53
2023-05-18T08:44:45.946Z,16.43
2023-05-18T08:47:14.735Z,16.69
2023-05-18T08:49:42.419Z,16.58
2023-05-18T08:52:09.548Z,16.28
2023-05-18T08:54:37.891Z,16.64
2023-05-18T08:57:09.062Z,16.31
2023-05-18T08:59:41.627Z,15.67
2023-05-18T09:02:11.239Z,15.76
2023-05-18T09:04:38.433Z,16.09
2023-05-18T09:07:07.660Z,15.91
2023-05-18T09:09:35.421Z,16.34
2023-05-18T09:12:01.898Z,16.45
2023-05-18T09:14:33.556Z,16.90
2023-05-18T09:17:00.766Z,17.01
2023-05-18T09:19:28.447Z,17.24
2023-05-18T09:21:58.090Z,17.00
2023-05-18T09:24:25.060Z,17.22
2023-05-18T09:26:53.233Z,17.52
2023-05-18T09:29:21.496Z,17.46
2023-05-18T09:31:48.435Z,17.16
2023-05-18T09:34:21.686Z,17.10
2023-05-18T09:36:58.049Z,17.08
2023-05-18T09:39:24.504Z,16.97
2023-05-18T09:41:57.394Z,16.77
2023-05-18T09:44:38.019Z,16.96
2023-05-18T09:47:09.872Z,16.89
2023-05-18T09:49:39.852Z,17.12
2023-05-18T09:52:09.574Z,17.33
2023-05-18T09:54:37.585Z,17.35
2023-05-18T09:57:10.674Z,17.63
2023-05-18T09:59:38.581Z,18.03
2023-05-18T10:02:12.302Z,18.02
2023-05-18T10:04:43.095Z,18.05
2023-05-18T10:07:16.748Z,18.01
2023-05-18T10:09:44.767Z,17.67
2023-05-18T10:12:15.820Z,18.06
2023-05-18T10:14:46.294Z,18.00
2023-05-18T10:17:17.627Z,18.10
2023-05-18T10:19:49.093Z,18.13
2023-05-18T10:22:18.477Z,18.43
2023-05-18T10:24:49.442Z,18.66
2023-05-18T10:27:23.364Z,18.17
2023-05-18T10:29:53.093Z,18.52
2023-05-18T10:32:20.780Z,18.68
2023-05-18T10:34:47.994Z,18.62
2023-05-18T10:37:17.396Z,18.69
2023-05-18T10:39:45.597Z,18.69
2023-05-18T10:42:17.408Z,18.58
2023-05-18T10:44:44.910Z,18.71
2023-05-18T10:47:13.027Z,18.84
2023-05-18T10:49:40.420Z,18.73
2023-05-18T10:52:08.755Z,18.40
2023-05-18T10:54:36.190Z,18.34
2023-05-18T10:57:02.967Z,18.56
2023-05-18T10:59:34.314Z,18.53
2023-05-18T11:02:01.435Z,18.49
2023-05-18T11:04:29.983Z,18.48
2023-05-18T11:07:00.033Z,18.02
2023-05-18T11:09:48.516Z,18.31
2023-05-18T11:12:20.063Z,18.30
2023-05-18T11:14:52.354Z,18.84
2023-05-18T11:17:24.457Z,18.92
2023-05-18T11:20:04.394Z,19.05
2023-05-18T11:22:48.580Z,19.08
2023-05-18T11:25:24.201Z,19.12
2023-05-18T11:27:52.638Z,19.28
2023-05-18T11:30:46.819Z,19.36
2023-05-18T11:33:15.897Z,19.39
2023-05-18T11:36:01.664Z,19.49
2023-05-18T11:38:52.001Z,19.77
2023-05-18T11:41:29.386Z,19.47
2023-05-18T11:44:15.938Z,19.66
2023-05-18T11:47:00.166Z,19.63
2023-05-18T11:49:51.016Z,19.76
2023-05-18T11:52:23.969Z,19.66
2023-05-18T11:54:56.817Z,19.70
2023-05-18T11:57:38.248Z,19.74
2023-05-18T12:00:16.197Z,19.26
2023-05-18T12:02:45.354Z,19.52
2023-05-18T12:05:13.041Z,20.00
2023-05-18T12:07:42.491Z,20.03
2023-05-18T12:10:14.911Z,20.10
2023-05-18T12:12:42.338Z,20.00
2023-05-18T12:15:11.385Z,19.96
2023-05-18T12:17:43.839Z,19.74
2023-05-18T12:20:12.477Z,19.85
2023-05-18T12:22:44.287Z,19.99
2023-05-18T12:25:11.309Z,19.98
2023-05-18T12:27:43.610Z,19.87
2023-05-18T12:30:14.661Z,19.88
2023-05-18T12:32:57.217Z,20.15
2023-05-18T12:35:27.976Z,20.01
2023-05-18T12:37:56.020Z,19.67
2023-05-18T12:40:26.797Z,19.84
2023-05-18T12:42:59.893Z,19.70
2023-05-18T12:45:28.673Z,19.56
2023-05-18T12:47:56.194Z,19.83
2023-05-18T12:50:27.637Z,19.86
2023-05-18T12:52:56.647Z,20.11
2023-05-18T12:55:26.529Z,19.99
2023-05-18T12:57:59.277Z,20.14
2023-05-18T13:00:29.212Z,20.01
2023-05-18T13:03:06.294Z,20.36
2023-05-18T13:05:33.088Z,20.18
2023-05-18T13:07:59.693Z,20.46
2023-05-18T13:10:30.220Z,20.59
2023-05-18T13:13:03.403Z,19.96
2023-05-18T13:15:37.716Z,20.15
2023-05-18T13:18:06.818Z,20.42
2023-05-18T13:20:43.886Z,20.37
2023-05-18T13:23:18.253Z,20.01
2023-05-18T13:25:46.357Z,19.94
2023-05-18T13:28:16.419Z,19.65
2023-05-18T13:30:43.793Z,20.18
2023-05-18T13:33:11.030Z,20.03
2023-05-18T13:35:40.526Z,19.56
2023-05-18T13:38:07.280Z,19.83
2023-05-18T13:40:35.240Z,20.00
2023-05-18T13:43:06.093Z,19.86
2023-05-18T13:45:35.930Z,19.61
2023-05-18T13:48:09.596Z,19.46
2023-05-18T13:50:37.983Z,19.71
2023-05-18T13:53:04.569Z,19.59
2023-05-18T13:55:31.422Z,19.48
2023-05-18T13:57:58.073Z,19.15
2023-05-18T14:00:25.037Z,19.16
2023-05-18T14:02:54.412Z,19.41
2023-05-18T14:05:21.302Z,19.52
2023-05-18T14:07:48.102Z,19.60
2023-05-18T14:10:14.604Z,19.60
2023-05-18T14:12:42.637Z,19.74
2023-05-18T14:15:10.311Z,19.71
2023-05-18T14:17:37.234Z,19.80
2023-05-18T14:20:07.002Z,19.86
2023-05-18T14:22:36.966Z,19.61
2023-05-18T14:25:05.988Z,19.76
2023-05-18T14:27:32.530Z,19.43
2023-05-18T14:29:58.985Z,19.20
2023-05-18T14:32:25.627Z,19.10
2023-05-18T14:34:55.330Z,19.09
2023-05-18T14:37:22.131Z,19.08
2023-05-18T14:39:49.980Z,19.35
2023-05-18T14:42:16.522Z,19.26
2023-05-18T14:44:43.060Z,19.24
2023-05-18T14:47:10.912Z,19.05
2023-05-18T14:49:37.884Z,19.03
2023-05-18T14:52:04.761Z,18.74
2023-05-18T14:54:31.241Z,18.80
2023-05-18T14:56:57.895Z,18.84
2023-05-18T14:59:24.297Z,18.93
2023-05-18T15:01:51.304Z,19.01
2023-05-18T15:04:18.057Z,19.24
2023-05-18T15:06:44.499Z,19.37
2023-05-18T15:09:11.337Z,19.34
2023-05-18T15:11:37.844Z,19.29
2023-05-18T15:14:04.864Z,19.12
2023-05-18T15:16:31.749Z,19.06
2023-05-18T15:18:58.323Z,18.85
2023-05-18T15:21:24.916Z,18.78
2023-05-18T15:23:54.755Z,18.52
2023-05-18T15:26:21.401Z,18.34
2023-05-18T15:28:48.059Z,18.38
2023-05-18T15:31:14.732Z,18.41
2023-05-18T15:33:43.874Z,18.44
2023-05-18T15:36:10.576Z,18.64
2023-05-18T15:38:37.157Z,18.73
2023-05-18T15:41:03.779Z,18.74
2023-05-18T15:43:30.670Z,18.84
2023-05-18T15:45:59.846Z,18.82
2023-05-18T15:48:26.337Z,18.77
2023-05-18T15:50:53.066Z,18.65
2023-05-18T15:53:19.546Z,18.67
2023-05-18T15:55:50.692Z,18.69
2023-05-18T15:58:17.199Z,18.63
2023-05-18T16:00:46.446Z,18.62
2023-05-18T16:03:15.506Z,18.65
2023-05-18T16:05:46.589Z,18.55
2023-05-18T16:08:13.343Z,18.58
2023-05-18T16:10:39.983Z,18.48
2023-05-18T16:13:06.640Z,18.31
2023-05-18T16:15:39.635Z,18.24
2023-05-18T16:18:06.621Z,18.23
2023-05-18T16:20:35.910Z,18.20
2023-05-18T16:23:02.383Z,18.06
2023-05-18T16:25:32.583Z,18.03
2023-05-18T16:27:59.121Z,17.89
2023-05-18T16:30:25.744Z,17.97
2023-05-18T16:32:54.705Z,17.99
2023-05-18T16:35:21.474Z,17.99
2023-05-18T16:37:48.316Z,18.08
2023-05-18T16:40:14.934Z,18.13
2023-05-18T16:42:41.444Z,18.13
2023-05-18T16:45:08.461Z,18.13
2023-05-18T16:47:34.954Z,18.12
2023-05-18T16:50:01.528Z,18.08
2023-05-18T16:52:30.791Z,18.02
2023-05-18T16:54:57.193Z,18.00
2023-05-18T16:57:26.701Z,18.00
2023-05-18T16:59:53.996Z,17.93
2023-05-18T17:02:20.652Z,17.93
2023-05-18T17:04:50.520Z,17.81
2023-05-18T17:07:17.132Z,17.75
2023-05-18T17:09:46.646Z,17.69
2023-05-18T17:12:13.222Z,17.56
2023-05-18T17:14:39.927Z,17.54
2023-05-18T17:17:09.951Z,17.51
2023-05-18T17:19:36.730Z,17.49
2023-05-18T17:22:06.459Z,17.45
2023-05-18T17:24:37.807Z,17.41
2023-05-18T17:27:05.042Z,17.38
2023-05-18T17:29:31.599Z,17.34
2023-05-18T17:31:58.167Z,17.27
2023-05-18T17:34:32.533Z,17.29
2023-05-18T17:37:02.315Z,17.28
2023-05-18T17:39:28.780Z,17.29
2023-05-18T17:41:55.319Z,17.17
2023-05-18T17:44:21.826Z,17.15
2023-05-18T17:46:52.096Z,17.12
2023-05-18T17:49:18.936Z,17.08
2023-05-18T17:51:45.717Z,17.05
2023-05-18T17:54:13.454Z,16.99
2023-05-18T17:56:40.281Z,16.94
2023-05-18T17:59:11.727Z,16.87
2023-05-18T18:01:38.399Z,16.78
2023-05-18T18:04:05.258Z,16.67
2023-05-18T18:06:35.880Z,16.65
2023-05-18T18:09:04.653Z,16.60
2023-05-18T18:11:34.868Z,16.53
2023-05-18T18:14:02.480Z,16.48
2023-05-18T18:16:34.305Z,16.44
2023-05-18T18:19:02.688Z,16.35
2023-05-18T18:21:29.619Z,16.35
2023-05-18T18:23:56.087Z,16.28
2023-05-18T18:26:22.490Z,16.22
2023-05-18T18:28:49.731Z,16.18
2023-05-18T18:31:16.260Z,16.12
2023-05-18T18:33:46.539Z,16.06
2023-05-18T18:36:15.890Z,16.03
2023-05-18T18:38:47.889Z,15.96
2023-05-18T18:41:17.917Z,15.89
2023-05-18T18:43:47.210Z,15.83
2023-05-18T18:46:13.742Z,15.77
2023-05-18T18:48:40.202Z,15.69
2023-05-18T18:51:07.315Z,15.61
2023-05-18T18:53:33.794Z,15.45
2023-05-18T18:56:01.779Z,15.37
2023-05-18T18:58:28.803Z,15.26
2023-05-18T19:00:55.926Z,15.19
2023-05-18T19:03:23.280Z,15.12
2023-05-18T19:05:51.658Z,15.12
2023-05-18T19:08:18.079Z,15.11
2023-05-18T19:10:46.552Z,15.06
2023-05-18T19:13:13.028Z,15.06
2023-05-18T19:15:42.380Z,15.01
2023-05-18T19:18:10.582Z,15.00
2023-05-18T19:20:39.715Z,15.00
2023-05-18T19:23:06.253Z,14.97
2023-05-18T19:25:36.715Z,14.93
2023-05-18T19:28:03.157Z,14.87
2023-05-18T19:30:30.155Z,14.84
2023-05-18T19:32:56.645Z,14.82
2023-05-18T19:35:26.916Z,14.79
2023-05-18T19:37:54.032Z,14.71
2023-05-18T19:40:23.149Z,14.65
2023-05-18T19:42:52.035Z,14.62
2023-05-18T19:45:22.387Z,14.54
2023-05-18T19:47:48.875Z,14.47
2023-05-18T19:50:15.480Z,14.47
2023-05-18T19:52:42.134Z,14.44
2023-05-18T19:55:08.619Z,14.46
2023-05-18T19:57:35.000Z,14.41
2023-05-18T20:00:02.399Z,14.35
2023-05-18T20:02:31.812Z,14.32
2023-05-18T20:05:00.754Z,14.26
2023-05-18T20:07:31.505Z,14.22
2023-05-18T20:09:59.103Z,14.20
2023-05-18T20:12:28.434Z,14.16
2023-05-18T20:14:54.814Z,14.12
2023-05-18T20:17:23.179Z,14.05
2023-05-18T20:19:53.379Z,13.99
2023-05-18T20:22:21.190Z,13.92
2023-05-18T20:24:51.790Z,13.90
2023-05-18T20:27:18.221Z,13.81
2023-05-18T20:29:45.636Z,13.72
2023-05-18T20:32:16.316Z,13.61
2023-05-18T20:34:44.885Z,13.58
2023-05-18T20:37:11.388Z,13.42
2023-05-18T20:39:41.500Z,13.33
2023-05-18T20:42:13.008Z,13.22
2023-05-18T20:44:39.539Z,13.21
2023-05-18T20:47:06.051Z,13.18
2023-05-18T20:49:36.119Z,13.06
2023-05-18T20:52:05.456Z,13.10
2023-05-18T20:54:34.773Z,13.04
2023-05-18T20:57:01.182Z,13.03
2023-05-18T20:59:27.622Z,13.13
2023-05-18T21:01:54.679Z,13.15
2023-05-18T21:04:22.086Z,13.16
2023-05-18T21:06:51.472Z,13.07
2023-05-18T21:09:19.459Z,13.01
2023-05-18T21:11:45.872Z,12.98
2023-05-18T21:14:12.352Z,13.01
2023-05-18T21:16:38.840Z,12.96
2023-05-18T21:19:07.779Z,12.95
2023-05-18T21:21:34.258Z,12.90
2023-05-18T21:24:01.769Z,12.97
2023-05-18T21:26:29.005Z,12.92
2023-05-18T21:28:58.036Z,12.93
2023-05-18T21:31:27.033Z,13.06
2023-05-18T21:33:56.128Z,13.10
2023-05-18T21:36:34.310Z,13.06
2023-05-18T21:39:04.032Z,13.03
2023-05-18T21:41:35.252Z,12.99
2023-05-18T21:44:20.330Z,13.08
2023-05-18T21:47:08.824Z,13.06
2023-05-18T21:49:53.970Z,12.98
2023-05-18T21:52:39.170Z,12.94
2023-05-18T21:55:25.187Z,12.89
2023-05-18T21:58:11.039Z,12.94
2023-05-18T22:00:55.999Z,12.90
2023-05-18T22:03:44.084Z,12.93
2023-05-18T22:06:28.862Z,12.90
2023-05-18T22:09:14.007Z,12.82
2023-05-18T22:11:59.089Z,12.87
2023-05-18T22:14:44.172Z,12.88
2023-05-18T22:17:29.754Z,12.89
2023-05-18T22:20:17.144Z,12.94
2023-05-18T22:23:02.266Z,12.92
2023-05-18T22:25:47.646Z,12.94
2023-05-18T22:28:32.638Z,12.86
2023-05-18T22:31:18.863Z,12.80
2023-05-18T22:34:03.699Z,12.76
2023-05-18T22:36:49.869Z,12.78
2023-05-18T22:39:34.910Z,12.79
2023-05-18T22:42:22.276Z,12.76
2023-05-18T22:45:04.095Z,12.76
2023-05-18T22:47:32.003Z,12.73
2023-05-18T22:49:58.443Z,12.72
2023-05-18T22:52:24.877Z,12.75
2023-05-18T22:54:52.748Z,12.63
2023-05-18T22:57:19.358Z,12.71
2023-05-18T22:59:45.800Z,12.65
2023-05-18T23:02:12.533Z,12.69
2023-05-18T23:04:39.141Z,12.69
2023-05-18T23:07:05.577Z,12.66
2023-05-18T23:09:32.103Z,12.51
2023-05-18T23:12:00.984Z,12.38
2023-05-18T23:14:31.194Z,12.24
2023-05-18T23:17:05.970Z,12.22
2023-05-18T23:19:36.087Z,12.37
2023-05-18T23:22:06.803Z,12.20
2023-05-18T23:24:33.226Z,12.16
2023-05-18T23:26:59.650Z,11.97
2023-05-18T23:29:27.510Z,12.02
2023-05-18T23:31:54.041Z,12.03
2023-05-18T23:34:20.896Z,12.08
2023-05-18T23:36:53.275Z,11.99
2023-05-18T23:39:24.790Z,12.01
2023-05-18T23:41:59.003Z,11.96
2023-05-18T23:44:26.386Z,11.98
2023-05-18T23:46:53.523Z,11.92
2023-05-18T23:49:21.099Z,11.77
2023-05-18T23:51:51.972Z,11.77
2023-05-18T23:54:21.711Z,11.83
2023-05-18T23:56:49.694Z,11.83
2023-05-18T23:59:16.563Z,11.83
